sensor_id;sensor_type;location;lat;lon;timestamp;P1;durP1;ratioP1;P2;durP2;ratioP2
12005;SDS011;6062;47.294;12.182;2022-10-13T00:00:42;2.13;;;1.70;;
12005;SDS011;6062;47.294;12.182;2022-10-13T00:03:11;2.45;;;1.65;;
12005;SDS011;6062;47.294;12.182;2022-10-13T00:05:41;2.93;;;1.50;;
12005;SDS011;6062;47.294;12.182;2022-10-13T00:08:10;2.95;;;1.85;;
12005;SDS011;6062;47.294;12.182;2022-10-13T00:10:38;2.17;;;1.70;;
12005;SDS011;6062;47.294;12.182;2022-10-13T00:13:05;3.15;;;1.80;;
12005;SDS011;6062;47.294;12.182;2022-10-13T00:15:35;2.17;;;1.80;;
12005;SDS011;6062;47.294;12.182;2022-10-13T00:18:03;1.85;;;1.60;;
12005;SDS011;6062;47.294;12.182;2022-10-13T00:20:28;2.92;;;1.70;;
12005;SDS011;6062;47.294;12.182;2022-10-13T00:22:54;2.00;;;1.57;;
12005;SDS011;6062;47.294;12.182;2022-10-13T00:25:20;4.35;;;1.60;;
12005;SDS011;6062;47.294;12.182;2022-10-13T00:27:45;3.40;;;1.70;;
12005;SDS011;6062;47.294;12.182;2022-10-13T00:30:11;2.65;;;1.90;;
12005;SDS011;6062;47.294;12.182;2022-10-13T00:32:37;3.15;;;1.73;;
12005;SDS011;6062;47.294;12.182;2022-10-13T00:35:03;2.40;;;1.70;;
12005;SDS011;6062;47.294;12.182;2022-10-13T00:37:29;2.20;;;1.63;;
12005;SDS011;6062;47.294;12.182;2022-10-13T00:39:54;1.90;;;1.40;;
12005;SDS011;6062;47.294;12.182;2022-10-13T00:42:20;4.13;;;1.60;;
12005;SDS011;6062;47.294;12.182;2022-10-13T00:47:25;3.63;;;1.50;;
12005;SDS011;6062;47.294;12.182;2022-10-13T00:50:05;2.80;;;1.48;;
12005;SDS011;6062;47.294;12.182;2022-10-13T00:52:56;3.67;;;1.50;;
12005;SDS011;6062;47.294;12.182;2022-10-13T00:55:26;2.97;;;1.60;;
12005;SDS011;6062;47.294;12.182;2022-10-13T00:57:55;1.60;;;1.40;;
12005;SDS011;6062;47.294;12.182;2022-10-13T01:00:25;5.20;;;1.77;;
12005;SDS011;6062;47.294;12.182;2022-10-13T01:02:52;2.27;;;1.60;;
12005;SDS011;6062;47.294;12.182;2022-10-13T01:05:18;2.22;;;1.63;;
12005;SDS011;6062;47.294;12.182;2022-10-13T01:07:46;1.98;;;1.55;;
12005;SDS011;6062;47.294;12.182;2022-10-13T01:10:14;2.10;;;1.70;;
12005;SDS011;6062;47.294;12.182;2022-10-13T01:16:20;2.83;;;1.52;;
12005;SDS011;6062;47.294;12.182;2022-10-13T01:18:46;3.47;;;1.80;;
12005;SDS011;6062;47.294;12.182;2022-10-13T01:21:38;3.03;;;1.65;;
12005;SDS011;6062;47.294;12.182;2022-10-13T01:30:24;4.15;;;1.83;;
12005;SDS011;6062;47.294;12.182;2022-10-13T01:32:55;3.35;;;1.60;;
12005;SDS011;6062;47.294;12.182;2022-10-13T01:35:42;2.37;;;1.60;;
12005;SDS011;6062;47.294;12.182;2022-10-13T01:38:54;2.53;;;1.40;;
12005;SDS011;6062;47.294;12.182;2022-10-13T01:41:42;2.70;;;1.48;;
12005;SDS011;6062;47.294;12.182;2022-10-13T01:44:28;2.93;;;1.50;;
12005;SDS011;6062;47.294;12.182;2022-10-13T01:47:02;2.33;;;1.52;;
12005;SDS011;6062;47.294;12.182;2022-10-13T01:49:32;2.03;;;1.50;;
12005;SDS011;6062;47.294;12.182;2022-10-13T01:52:21;2.75;;;1.70;;
12005;SDS011;6062;47.294;12.182;2022-10-13T01:54:49;2.33;;;1.58;;
12005;SDS011;6062;47.294;12.182;2022-10-13T02:00:03;2.80;;;1.30;;
12005;SDS011;6062;47.294;12.182;2022-10-13T02:02:42;3.38;;;1.55;;
12005;SDS011;6062;47.294;12.182;2022-10-13T02:05:22;2.30;;;1.45;;
12005;SDS011;6062;47.294;12.182;2022-10-13T02:11:12;2.43;;;1.20;;
12005;SDS011;6062;47.294;12.182;2022-10-13T02:14:04;2.57;;;1.63;;
12005;SDS011;6062;47.294;12.182;2022-10-13T02:16:41;2.57;;;1.33;;
12005;SDS011;6062;47.294;12.182;2022-10-13T02:19:11;1.95;;;1.27;;
12005;SDS011;6062;47.294;12.182;2022-10-13T02:21:41;2.58;;;1.40;;
12005;SDS011;6062;47.294;12.182;2022-10-13T02:24:07;1.98;;;1.50;;
12005;SDS011;6062;47.294;12.182;2022-10-13T02:26:34;2.08;;;1.40;;
12005;SDS011;6062;47.294;12.182;2022-10-13T02:29:11;3.03;;;1.30;;
12005;SDS011;6062;47.294;12.182;2022-10-13T02:31:40;1.90;;;1.38;;
12005;SDS011;6062;47.294;12.182;2022-10-13T02:34:07;3.50;;;1.67;;
12005;SDS011;6062;47.294;12.182;2022-10-13T02:36:33;3.50;;;1.73;;
12005;SDS011;6062;47.294;12.182;2022-10-13T02:39:01;3.90;;;1.67;;
12005;SDS011;6062;47.294;12.182;2022-10-13T02:41:29;2.00;;;1.63;;
12005;SDS011;6062;47.294;12.182;2022-10-13T02:43:55;2.03;;;1.42;;
12005;SDS011;6062;47.294;12.182;2022-10-13T02:46:21;3.67;;;1.60;;
12005;SDS011;6062;47.294;12.182;2022-10-13T02:48:46;2.80;;;1.63;;
12005;SDS011;6062;47.294;12.182;2022-10-13T02:51:12;2.20;;;1.70;;
12005;SDS011;6062;47.294;12.182;2022-10-13T02:53:38;3.65;;;1.60;;
12005;SDS011;6062;47.294;12.182;2022-10-13T02:56:04;2.90;;;1.50;;
12005;SDS011;6062;47.294;12.182;2022-10-13T02:58:30;3.35;;;1.50;;
12005;SDS011;6062;47.294;12.182;2022-10-13T03:01:09;2.05;;;1.50;;
12005;SDS011;6062;47.294;12.182;2022-10-13T03:03:38;2.13;;;1.60;;
12005;SDS011;6062;47.294;12.182;2022-10-13T03:06:04;2.65;;;1.45;;
12005;SDS011;6062;47.294;12.182;2022-10-13T03:08:31;2.67;;;1.40;;
12005;SDS011;6062;47.294;12.182;2022-10-13T03:10:59;4.15;;;1.80;;
12005;SDS011;6062;47.294;12.182;2022-10-13T03:13:25;2.00;;;1.50;;
12005;SDS011;6062;47.294;12.182;2022-10-13T03:15:51;2.75;;;1.48;;
12005;SDS011;6062;47.294;12.182;2022-10-13T03:18:17;2.30;;;1.50;;
12005;SDS011;6062;47.294;12.182;2022-10-13T03:20:42;2.27;;;1.30;;
12005;SDS011;6062;47.294;12.182;2022-10-13T03:23:08;2.73;;;1.30;;
12005;SDS011;6062;47.294;12.182;2022-10-13T03:25:35;2.85;;;1.20;;
12005;SDS011;6062;47.294;12.182;2022-10-13T03:28:01;1.93;;;1.53;;
12005;SDS011;6062;47.294;12.182;2022-10-13T03:30:27;3.57;;;1.73;;
12005;SDS011;6062;47.294;12.182;2022-10-13T03:32:53;2.35;;;1.50;;
12005;SDS011;6062;47.294;12.182;2022-10-13T03:35:19;2.80;;;1.47;;
12005;SDS011;6062;47.294;12.182;2022-10-13T03:37:44;2.23;;;1.30;;
12005;SDS011;6062;47.294;12.182;2022-10-13T03:40:10;1.87;;;1.17;;
12005;SDS011;6062;47.294;12.182;2022-10-13T03:42:37;4.82;;;1.60;;
12005;SDS011;6062;47.294;12.182;2022-10-13T03:45:03;2.05;;;1.40;;
12005;SDS011;6062;47.294;12.182;2022-10-13T03:47:30;1.77;;;1.30;;
12005;SDS011;6062;47.294;12.182;2022-10-13T03:49:56;1.97;;;1.30;;
12005;SDS011;6062;47.294;12.182;2022-10-13T03:52:22;3.28;;;1.30;;
12005;SDS011;6062;47.294;12.182;2022-10-13T03:54:48;2.20;;;1.20;;
12005;SDS011;6062;47.294;12.182;2022-10-13T03:57:13;1.63;;;1.40;;
12005;SDS011;6062;47.294;12.182;2022-10-13T03:59:39;1.30;;;1.20;;
12005;SDS011;6062;47.294;12.182;2022-10-13T04:02:06;2.75;;;1.40;;
12005;SDS011;6062;47.294;12.182;2022-10-13T04:04:32;2.50;;;1.40;;
12005;SDS011;6062;47.294;12.182;2022-10-13T04:06:59;2.90;;;1.13;;
12005;SDS011;6062;47.294;12.182;2022-10-13T04:09:25;3.10;;;1.40;;
12005;SDS011;6062;47.294;12.182;2022-10-13T04:11:51;2.67;;;1.52;;
12005;SDS011;6062;47.294;12.182;2022-10-13T04:14:17;3.22;;;1.35;;
12005;SDS011;6062;47.294;12.182;2022-10-13T04:16:44;1.97;;;1.40;;
12005;SDS011;6062;47.294;12.182;2022-10-13T04:19:11;2.53;;;1.25;;
12005;SDS011;6062;47.294;12.182;2022-10-13T04:21:38;2.23;;;1.23;;
12005;SDS011;6062;47.294;12.182;2022-10-13T04:24:05;1.73;;;1.30;;
12005;SDS011;6062;47.294;12.182;2022-10-13T04:26:33;2.70;;;1.43;;
12005;SDS011;6062;47.294;12.182;2022-10-13T04:29:01;1.73;;;1.45;;
12005;SDS011;6062;47.294;12.182;2022-10-13T04:31:29;3.07;;;1.67;;
12005;SDS011;6062;47.294;12.182;2022-10-13T04:33:56;2.80;;;1.60;;
12005;SDS011;6062;47.294;12.182;2022-10-13T04:36:22;1.70;;;1.30;;
12005;SDS011;6062;47.294;12.182;2022-10-13T04:38:48;2.00;;;1.57;;
12005;SDS011;6062;47.294;12.182;2022-10-13T04:41:15;2.70;;;1.40;;
12005;SDS011;6062;47.294;12.182;2022-10-13T04:43:43;2.37;;;1.50;;
12005;SDS011;6062;47.294;12.182;2022-10-13T04:46:13;2.70;;;1.60;;
12005;SDS011;6062;47.294;12.182;2022-10-13T04:48:50;2.03;;;1.50;;
12005;SDS011;6062;47.294;12.182;2022-10-13T04:51:18;1.95;;;1.55;;
12005;SDS011;6062;47.294;12.182;2022-10-13T04:53:47;4.22;;;1.50;;
12005;SDS011;6062;47.294;12.182;2022-10-13T04:56:14;1.70;;;1.30;;
12005;SDS011;6062;47.294;12.182;2022-10-13T04:58:42;2.58;;;1.42;;
12005;SDS011;6062;47.294;12.182;2022-10-13T05:01:13;1.90;;;1.40;;
12005;SDS011;6062;47.294;12.182;2022-10-13T05:03:43;4.40;;;1.57;;
12005;SDS011;6062;47.294;12.182;2022-10-13T05:06:13;1.80;;;1.50;;
12005;SDS011;6062;47.294;12.182;2022-10-13T05:08:42;2.07;;;1.27;;
12005;SDS011;6062;47.294;12.182;2022-10-13T05:11:08;2.83;;;1.40;;
12005;SDS011;6062;47.294;12.182;2022-10-13T05:13:34;1.35;;;1.17;;
12005;SDS011;6062;47.294;12.182;2022-10-13T05:16:05;2.13;;;1.30;;
12005;SDS011;6062;47.294;12.182;2022-10-13T05:18:36;2.38;;;1.50;;
12005;SDS011;6062;47.294;12.182;2022-10-13T05:21:10;2.50;;;1.53;;
12005;SDS011;6062;47.294;12.182;2022-10-13T05:23:42;2.50;;;1.43;;
12005;SDS011;6062;47.294;12.182;2022-10-13T05:26:11;2.33;;;1.40;;
12005;SDS011;6062;47.294;12.182;2022-10-13T05:28:41;2.17;;;1.27;;
12005;SDS011;6062;47.294;12.182;2022-10-13T05:31:15;1.23;;;1.13;;
12005;SDS011;6062;47.294;12.182;2022-10-13T05:33:45;2.10;;;1.50;;
12005;SDS011;6062;47.294;12.182;2022-10-13T05:36:16;1.58;;;1.30;;
12005;SDS011;6062;47.294;12.182;2022-10-13T05:38:48;2.43;;;1.60;;
12005;SDS011;6062;47.294;12.182;2022-10-13T05:41:19;1.70;;;1.60;;
12005;SDS011;6062;47.294;12.182;2022-10-13T05:43:46;2.87;;;1.60;;
12005;SDS011;6062;47.294;12.182;2022-10-13T05:46:12;5.07;;;1.60;;
12005;SDS011;6062;47.294;12.182;2022-10-13T05:48:38;1.50;;;1.40;;
12005;SDS011;6062;47.294;12.182;2022-10-13T05:51:09;1.80;;;1.60;;
12005;SDS011;6062;47.294;12.182;2022-10-13T05:53:40;2.15;;;1.70;;
12005;SDS011;6062;47.294;12.182;2022-10-13T05:56:15;2.17;;;1.60;;
12005;SDS011;6062;47.294;12.182;2022-10-13T05:58:53;2.35;;;1.60;;
12005;SDS011;6062;47.294;12.182;2022-10-13T06:01:24;2.05;;;1.60;;
12005;SDS011;6062;47.294;12.182;2022-10-13T06:03:57;5.38;;;1.90;;
12005;SDS011;6062;47.294;12.182;2022-10-13T06:06:27;3.55;;;1.50;;
12005;SDS011;6062;47.294;12.182;2022-10-13T06:08:53;2.33;;;1.70;;
12005;SDS011;6062;47.294;12.182;2022-10-13T06:11:18;1.67;;;1.52;;
12005;SDS011;6062;47.294;12.182;2022-10-13T06:13:44;4.32;;;1.70;;
12005;SDS011;6062;47.294;12.182;2022-10-13T06:16:10;3.90;;;1.55;;
12005;SDS011;6062;47.294;12.182;2022-10-13T06:18:35;3.97;;;1.52;;
12005;SDS011;6062;47.294;12.182;2022-10-13T06:21:01;4.35;;;1.60;;
12005;SDS011;6062;47.294;12.182;2022-10-13T06:23:27;3.38;;;1.50;;
12005;SDS011;6062;47.294;12.182;2022-10-13T06:25:52;3.03;;;1.45;;
12005;SDS011;6062;47.294;12.182;2022-10-13T06:28:19;2.45;;;1.55;;
12005;SDS011;6062;47.294;12.182;2022-10-13T06:30:45;3.80;;;1.60;;
12005;SDS011;6062;47.294;12.182;2022-10-13T06:33:18;1.65;;;1.30;;
12005;SDS011;6062;47.294;12.182;2022-10-13T06:35:45;4.32;;;1.50;;
12005;SDS011;6062;47.294;12.182;2022-10-13T06:38:11;2.65;;;1.40;;
12005;SDS011;6062;47.294;12.182;2022-10-13T06:40:36;2.28;;;1.42;;
12005;SDS011;6062;47.294;12.182;2022-10-13T06:43:02;2.30;;;1.30;;
12005;SDS011;6062;47.294;12.182;2022-10-13T06:45:28;2.25;;;1.27;;
12005;SDS011;6062;47.294;12.182;2022-10-13T06:47:54;2.08;;;1.33;;
12005;SDS011;6062;47.294;12.182;2022-10-13T06:50:21;2.63;;;1.33;;
12005;SDS011;6062;47.294;12.182;2022-10-13T06:52:47;2.20;;;1.40;;
12005;SDS011;6062;47.294;12.182;2022-10-13T06:55:13;3.10;;;1.20;;
12005;SDS011;6062;47.294;12.182;2022-10-13T06:57:39;2.80;;;1.38;;
12005;SDS011;6062;47.294;12.182;2022-10-13T07:00:05;3.58;;;1.40;;
12005;SDS011;6062;47.294;12.182;2022-10-13T07:02:32;2.80;;;1.38;;
12005;SDS011;6062;47.294;12.182;2022-10-13T07:04:58;1.48;;;1.10;;
12005;SDS011;6062;47.294;12.182;2022-10-13T07:07:24;2.63;;;1.20;;
12005;SDS011;6062;47.294;12.182;2022-10-13T07:09:50;1.98;;;1.10;;
12005;SDS011;6062;47.294;12.182;2022-10-13T07:12:16;1.60;;;1.02;;
12005;SDS011;6062;47.294;12.182;2022-10-13T07:14:41;1.40;;;1.10;;
12005;SDS011;6062;47.294;12.182;2022-10-13T07:17:07;2.53;;;1.20;;
12005;SDS011;6062;47.294;12.182;2022-10-13T07:19:33;1.98;;;1.20;;
12005;SDS011;6062;47.294;12.182;2022-10-13T07:21:58;1.73;;;1.20;;
12005;SDS011;6062;47.294;12.182;2022-10-13T07:24:24;1.95;;;1.02;;
12005;SDS011;6062;47.294;12.182;2022-10-13T07:26:50;2.35;;;1.20;;
12005;SDS011;6062;47.294;12.182;2022-10-13T07:29:16;2.13;;;1.17;;
12005;SDS011;6062;47.294;12.182;2022-10-13T07:31:42;1.50;;;0.95;;
12005;SDS011;6062;47.294;12.182;2022-10-13T07:34:09;3.10;;;1.08;;
12005;SDS011;6062;47.294;12.182;2022-10-13T07:36:36;3.45;;;1.15;;
12005;SDS011;6062;47.294;12.182;2022-10-13T07:39:04;2.20;;;0.98;;
12005;SDS011;6062;47.294;12.182;2022-10-13T07:41:30;2.75;;;1.38;;
12005;SDS011;6062;47.294;12.182;2022-10-13T07:43:56;2.85;;;1.30;;
12005;SDS011;6062;47.294;12.182;2022-10-13T07:46:23;1.13;;;0.80;;
12005;SDS011;6062;47.294;12.182;2022-10-13T07:48:50;2.22;;;1.40;;
12005;SDS011;6062;47.294;12.182;2022-10-13T07:51:17;2.95;;;1.20;;
12005;SDS011;6062;47.294;12.182;2022-10-13T07:53:44;2.30;;;1.25;;
12005;SDS011;6062;47.294;12.182;2022-10-13T07:56:11;1.50;;;1.10;;
12005;SDS011;6062;47.294;12.182;2022-10-13T07:58:40;2.88;;;1.13;;
12005;SDS011;6062;47.294;12.182;2022-10-13T08:01:09;2.10;;;1.20;;
12005;SDS011;6062;47.294;12.182;2022-10-13T08:03:35;1.98;;;1.10;;
12005;SDS011;6062;47.294;12.182;2022-10-13T08:06:03;2.67;;;1.38;;
12005;SDS011;6062;47.294;12.182;2022-10-13T08:08:30;2.00;;;1.10;;
12005;SDS011;6062;47.294;12.182;2022-10-13T08:11:10;2.47;;;0.98;;
12005;SDS011;6062;47.294;12.182;2022-10-13T08:13:38;2.13;;;1.20;;
12005;SDS011;6062;47.294;12.182;2022-10-13T08:16:04;1.65;;;0.90;;
12005;SDS011;6062;47.294;12.182;2022-10-13T08:18:30;1.88;;;1.17;;
12005;SDS011;6062;47.294;12.182;2022-10-13T08:20:58;3.90;;;1.17;;
12005;SDS011;6062;47.294;12.182;2022-10-13T08:23:26;1.70;;;1.20;;
12005;SDS011;6062;47.294;12.182;2022-10-13T08:25:52;1.77;;;1.10;;
12005;SDS011;6062;47.294;12.182;2022-10-13T08:28:20;2.05;;;1.20;;
12005;SDS011;6062;47.294;12.182;2022-10-13T08:30:50;3.90;;;1.17;;
12005;SDS011;6062;47.294;12.182;2022-10-13T08:33:17;1.75;;;1.10;;
12005;SDS011;6062;47.294;12.182;2022-10-13T08:35:44;3.05;;;1.30;;
12005;SDS011;6062;47.294;12.182;2022-10-13T08:38:10;2.10;;;1.20;;
12005;SDS011;6062;47.294;12.182;2022-10-13T08:40:36;1.42;;;1.20;;
12005;SDS011;6062;47.294;12.182;2022-10-13T08:43:06;2.63;;;1.30;;
12005;SDS011;6062;47.294;12.182;2022-10-13T08:45:37;3.60;;;1.20;;
12005;SDS011;6062;47.294;12.182;2022-10-13T08:48:09;1.70;;;1.25;;
12005;SDS011;6062;47.294;12.182;2022-10-13T08:50:42;3.10;;;1.27;;
12005;SDS011;6062;47.294;12.182;2022-10-13T08:53:15;2.78;;;1.40;;
12005;SDS011;6062;47.294;12.182;2022-10-13T08:55:55;4.60;;;1.55;;
12005;SDS011;6062;47.294;12.182;2022-10-13T08:58:26;2.05;;;1.00;;
12005;SDS011;6062;47.294;12.182;2022-10-13T09:01:10;3.45;;;1.30;;
12005;SDS011;6062;47.294;12.182;2022-10-13T09:03:44;3.47;;;1.17;;
12005;SDS011;6062;47.294;12.182;2022-10-13T09:09:13;2.53;;;1.30;;
12005;SDS011;6062;47.294;12.182;2022-10-13T09:11:43;2.38;;;1.08;;
12005;SDS011;6062;47.294;12.182;2022-10-13T09:14:18;2.58;;;1.05;;
12005;SDS011;6062;47.294;12.182;2022-10-13T09:16:49;2.22;;;1.33;;
12005;SDS011;6062;47.294;12.182;2022-10-13T09:19:29;2.20;;;1.30;;
12005;SDS011;6062;47.294;12.182;2022-10-13T09:24:47;2.90;;;1.20;;
12005;SDS011;6062;47.294;12.182;2022-10-13T09:35:33;3.35;;;1.27;;
12005;SDS011;6062;47.294;12.182;2022-10-13T09:38:04;4.20;;;1.40;;
12005;SDS011;6062;47.294;12.182;2022-10-13T09:40:56;4.45;;;1.10;;
12005;SDS011;6062;47.294;12.182;2022-10-13T09:43:32;3.35;;;1.20;;
12005;SDS011;6062;47.294;12.182;2022-10-13T09:46:24;2.65;;;1.30;;
12005;SDS011;6062;47.294;12.182;2022-10-13T09:51:56;2.63;;;1.20;;
12005;SDS011;6062;47.294;12.182;2022-10-13T09:57:06;4.03;;;1.33;;
12005;SDS011;6062;47.294;12.182;2022-10-13T10:00:02;1.52;;;0.85;;
12005;SDS011;6062;47.294;12.182;2022-10-13T10:02:32;3.20;;;1.30;;
12005;SDS011;6062;47.294;12.182;2022-10-13T10:05:22;3.67;;;1.50;;
12005;SDS011;6062;47.294;12.182;2022-10-13T10:07:56;5.22;;;1.52;;
12005;SDS011;6062;47.294;12.182;2022-10-13T10:10:35;2.58;;;1.05;;
12005;SDS011;6062;47.294;12.182;2022-10-13T10:13:04;1.30;;;1.10;;
12005;SDS011;6062;47.294;12.182;2022-10-13T10:15:36;4.22;;;1.17;;
12005;SDS011;6062;47.294;12.182;2022-10-13T10:18:38;3.80;;;1.42;;
12005;SDS011;6062;47.294;12.182;2022-10-13T10:26:54;4.55;;;1.40;;
12005;SDS011;6062;47.294;12.182;2022-10-13T10:29:36;4.05;;;1.40;;
12005;SDS011;6062;47.294;12.182;2022-10-13T10:35:35;3.83;;;1.38;;
12005;SDS011;6062;47.294;12.182;2022-10-13T10:38:49;4.47;;;1.60;;
12005;SDS011;6062;47.294;12.182;2022-10-13T10:44:14;3.80;;;1.60;;
12005;SDS011;6062;47.294;12.182;2022-10-13T10:46:59;4.65;;;1.42;;
12005;SDS011;6062;47.294;12.182;2022-10-13T10:49:33;3.40;;;1.38;;
12005;SDS011;6062;47.294;12.182;2022-10-13T10:52:07;4.32;;;1.40;;
12005;SDS011;6062;47.294;12.182;2022-10-13T10:54:48;5.30;;;1.50;;
12005;SDS011;6062;47.294;12.182;2022-10-13T10:57:49;4.10;;;1.35;;
12005;SDS011;6062;47.294;12.182;2022-10-13T11:07:03;3.72;;;1.15;;
12005;SDS011;6062;47.294;12.182;2022-10-13T11:14:45;3.42;;;1.40;;
12005;SDS011;6062;47.294;12.182;2022-10-13T11:17:26;3.50;;;1.50;;
12005;SDS011;6062;47.294;12.182;2022-10-13T11:19:53;3.90;;;1.48;;
12005;SDS011;6062;47.294;12.182;2022-10-13T11:22:29;3.47;;;1.38;;
12005;SDS011;6062;47.294;12.182;2022-10-13T11:30:04;5.35;;;1.85;;
12005;SDS011;6062;47.294;12.182;2022-10-13T11:38:54;2.13;;;1.45;;
12005;SDS011;6062;47.294;12.182;2022-10-13T11:41:31;3.03;;;1.58;;
12005;SDS011;6062;47.294;12.182;2022-10-13T11:44:19;3.50;;;1.55;;
12005;SDS011;6062;47.294;12.182;2022-10-13T11:50:05;4.90;;;1.60;;
12005;SDS011;6062;47.294;12.182;2022-10-13T11:53:10;3.58;;;1.63;;
12005;SDS011;6062;47.294;12.182;2022-10-13T11:55:55;4.28;;;1.55;;
12005;SDS011;6062;47.294;12.182;2022-10-13T11:58:23;5.25;;;1.70;;
12005;SDS011;6062;47.294;12.182;2022-10-13T12:00:59;3.83;;;1.58;;
12005;SDS011;6062;47.294;12.182;2022-10-13T12:03:29;4.28;;;1.83;;
12005;SDS011;6062;47.294;12.182;2022-10-13T12:09:03;2.55;;;1.30;;
12005;SDS011;6062;47.294;12.182;2022-10-13T12:11:43;5.13;;;1.63;;
12005;SDS011;6062;47.294;12.182;2022-10-13T12:14:20;3.05;;;1.65;;
12005;SDS011;6062;47.294;12.182;2022-10-13T12:17:02;4.03;;;1.58;;
12005;SDS011;6062;47.294;12.182;2022-10-13T12:19:29;2.55;;;1.50;;
12005;SDS011;6062;47.294;12.182;2022-10-13T12:21:57;3.85;;;1.42;;
12005;SDS011;6062;47.294;12.182;2022-10-13T12:24:27;3.17;;;1.40;;
12005;SDS011;6062;47.294;12.182;2022-10-13T12:26:55;3.38;;;1.52;;
12005;SDS011;6062;47.294;12.182;2022-10-13T12:29:26;4.30;;;1.42;;
12005;SDS011;6062;47.294;12.182;2022-10-13T12:31:54;4.18;;;1.63;;
12005;SDS011;6062;47.294;12.182;2022-10-13T12:36:59;2.45;;;1.55;;
12005;SDS011;6062;47.294;12.182;2022-10-13T12:39:29;2.65;;;1.67;;
12005;SDS011;6062;47.294;12.182;2022-10-13T12:41:59;3.08;;;1.63;;
12005;SDS011;6062;47.294;12.182;2022-10-13T12:44:27;2.80;;;1.52;;
12005;SDS011;6062;47.294;12.182;2022-10-13T12:46:56;2.97;;;1.70;;
12005;SDS011;6062;47.294;12.182;2022-10-13T12:49:29;3.78;;;1.52;;
12005;SDS011;6062;47.294;12.182;2022-10-13T12:52:05;2.88;;;1.40;;
12005;SDS011;6062;47.294;12.182;2022-10-13T12:54:48;4.35;;;1.90;;
12005;SDS011;6062;47.294;12.182;2022-10-13T12:57:18;3.50;;;1.52;;
12005;SDS011;6062;47.294;12.182;2022-10-13T12:59:46;2.70;;;1.60;;
12005;SDS011;6062;47.294;12.182;2022-10-13T13:02:18;4.82;;;1.70;;
12005;SDS011;6062;47.294;12.182;2022-10-13T13:04:49;3.53;;;1.60;;
12005;SDS011;6062;47.294;12.182;2022-10-13T13:07:26;5.22;;;1.77;;
12005;SDS011;6062;47.294;12.182;2022-10-13T13:10:17;7.55;;;1.50;;
12005;SDS011;6062;47.294;12.182;2022-10-13T13:12:44;5.60;;;1.70;;
12005;SDS011;6062;47.294;12.182;2022-10-13T13:15:55;2.67;;;1.73;;
12005;SDS011;6062;47.294;12.182;2022-10-13T13:21:04;2.75;;;1.30;;
12005;SDS011;6062;47.294;12.182;2022-10-13T13:23:35;5.43;;;1.60;;
12005;SDS011;6062;47.294;12.182;2022-10-13T13:28:47;3.03;;;1.50;;
12005;SDS011;6062;47.294;12.182;2022-10-13T13:31:15;2.25;;;1.60;;
12005;SDS011;6062;47.294;12.182;2022-10-13T13:33:44;3.25;;;1.60;;
12005;SDS011;6062;47.294;12.182;2022-10-13T13:36:14;2.95;;;1.65;;
12005;SDS011;6062;47.294;12.182;2022-10-13T13:38:49;5.00;;;1.90;;
12005;SDS011;6062;47.294;12.182;2022-10-13T13:41:16;5.20;;;1.80;;
12005;SDS011;6062;47.294;12.182;2022-10-13T13:43:42;2.85;;;1.80;;
12005;SDS011;6062;47.294;12.182;2022-10-13T13:46:26;4.60;;;1.60;;
12005;SDS011;6062;47.294;12.182;2022-10-13T13:48:52;3.53;;;1.60;;
12005;SDS011;6062;47.294;12.182;2022-10-13T13:51:18;2.67;;;1.55;;
12005;SDS011;6062;47.294;12.182;2022-10-13T13:53:44;5.05;;;1.70;;
12005;SDS011;6062;47.294;12.182;2022-10-13T13:56:10;4.93;;;1.52;;
12005;SDS011;6062;47.294;12.182;2022-10-13T13:58:41;5.00;;;1.42;;
12005;SDS011;6062;47.294;12.182;2022-10-13T14:01:08;4.22;;;1.80;;
12005;SDS011;6062;47.294;12.182;2022-10-13T14:03:35;5.30;;;2.15;;
12005;SDS011;6062;47.294;12.182;2022-10-13T14:06:02;4.57;;;1.60;;
12005;SDS011;6062;47.294;12.182;2022-10-13T14:08:31;3.45;;;1.45;;
12005;SDS011;6062;47.294;12.182;2022-10-13T14:10:59;4.80;;;1.60;;
12005;SDS011;6062;47.294;12.182;2022-10-13T14:13:32;7.57;;;1.88;;
12005;SDS011;6062;47.294;12.182;2022-10-13T14:15:59;2.80;;;1.83;;
12005;SDS011;6062;47.294;12.182;2022-10-13T14:18:27;5.70;;;1.83;;
12005;SDS011;6062;47.294;12.182;2022-10-13T14:20:53;3.00;;;1.70;;
12005;SDS011;6062;47.294;12.182;2022-10-13T14:23:19;3.65;;;1.65;;
12005;SDS011;6062;47.294;12.182;2022-10-13T14:25:44;3.50;;;1.80;;
12005;SDS011;6062;47.294;12.182;2022-10-13T14:28:10;4.60;;;1.63;;
12005;SDS011;6062;47.294;12.182;2022-10-13T14:30:39;5.90;;;1.92;;
12005;SDS011;6062;47.294;12.182;2022-10-13T14:33:06;6.13;;;1.83;;
12005;SDS011;6062;47.294;12.182;2022-10-13T14:35:32;3.40;;;1.50;;
12005;SDS011;6062;47.294;12.182;2022-10-13T14:37:59;4.00;;;1.80;;
12005;SDS011;6062;47.294;12.182;2022-10-13T14:40:24;4.68;;;1.80;;
12005;SDS011;6062;47.294;12.182;2022-10-13T14:42:50;6.45;;;1.55;;
12005;SDS011;6062;47.294;12.182;2022-10-13T14:45:16;6.00;;;2.00;;
12005;SDS011;6062;47.294;12.182;2022-10-13T14:47:42;3.50;;;1.70;;
12005;SDS011;6062;47.294;12.182;2022-10-13T14:50:07;2.92;;;1.90;;
12005;SDS011;6062;47.294;12.182;2022-10-13T14:52:34;5.88;;;1.98;;
12005;SDS011;6062;47.294;12.182;2022-10-13T14:55:00;3.92;;;2.00;;
12005;SDS011;6062;47.294;12.182;2022-10-13T14:57:25;4.65;;;1.75;;
12005;SDS011;6062;47.294;12.182;2022-10-13T14:59:51;4.43;;;1.60;;
12005;SDS011;6062;47.294;12.182;2022-10-13T15:02:17;3.85;;;2.10;;
12005;SDS011;6062;47.294;12.182;2022-10-13T15:04:43;3.35;;;1.80;;
12005;SDS011;6062;47.294;12.182;2022-10-13T15:07:08;4.22;;;1.85;;
12005;SDS011;6062;47.294;12.182;2022-10-13T15:09:34;4.30;;;1.90;;
12005;SDS011;6062;47.294;12.182;2022-10-13T15:12:00;2.80;;;1.85;;
12005;SDS011;6062;47.294;12.182;2022-10-13T15:14:25;3.90;;;2.00;;
12005;SDS011;6062;47.294;12.182;2022-10-13T15:16:51;2.97;;;1.67;;
12005;SDS011;6062;47.294;12.182;2022-10-13T15:19:17;3.47;;;1.98;;
12005;SDS011;6062;47.294;12.182;2022-10-13T15:21:43;4.55;;;1.70;;
12005;SDS011;6062;47.294;12.182;2022-10-13T15:24:09;5.35;;;1.92;;
12005;SDS011;6062;47.294;12.182;2022-10-13T15:26:35;3.85;;;1.77;;
12005;SDS011;6062;47.294;12.182;2022-10-13T15:29:01;5.88;;;1.85;;
12005;SDS011;6062;47.294;12.182;2022-10-13T15:31:27;1.98;;;1.65;;
12005;SDS011;6062;47.294;12.182;2022-10-13T15:33:55;3.20;;;1.80;;
12005;SDS011;6062;47.294;12.182;2022-10-13T15:36:21;4.03;;;2.10;;
12005;SDS011;6062;47.294;12.182;2022-10-13T15:38:49;7.28;;;2.08;;
12005;SDS011;6062;47.294;12.182;2022-10-13T15:41:16;4.20;;;1.90;;
12005;SDS011;6062;47.294;12.182;2022-10-13T15:43:43;3.33;;;1.77;;
12005;SDS011;6062;47.294;12.182;2022-10-13T15:46:12;3.22;;;1.90;;
12005;SDS011;6062;47.294;12.182;2022-10-13T15:48:48;1.98;;;1.77;;
12005;SDS011;6062;47.294;12.182;2022-10-13T15:51:20;4.70;;;1.88;;
12005;SDS011;6062;47.294;12.182;2022-10-13T15:53:48;4.28;;;1.90;;
12005;SDS011;6062;47.294;12.182;2022-10-13T15:56:14;5.57;;;2.00;;
12005;SDS011;6062;47.294;12.182;2022-10-13T15:58:40;4.70;;;2.00;;
12005;SDS011;6062;47.294;12.182;2022-10-13T16:01:07;3.95;;;1.85;;
12005;SDS011;6062;47.294;12.182;2022-10-13T16:03:34;2.55;;;1.70;;
12005;SDS011;6062;47.294;12.182;2022-10-13T16:06:01;3.22;;;1.60;;
12005;SDS011;6062;47.294;12.182;2022-10-13T16:08:30;7.40;;;1.70;;
12005;SDS011;6062;47.294;12.182;2022-10-13T16:10:56;4.03;;;2.10;;
12005;SDS011;6062;47.294;12.182;2022-10-13T16:13:22;3.55;;;1.65;;
12005;SDS011;6062;47.294;12.182;2022-10-13T16:15:57;3.63;;;1.83;;
12005;SDS011;6062;47.294;12.182;2022-10-13T16:18:28;3.92;;;1.70;;
12005;SDS011;6062;47.294;12.182;2022-10-13T16:20:56;2.90;;;1.50;;
12005;SDS011;6062;47.294;12.182;2022-10-13T16:23:22;3.83;;;1.52;;
12005;SDS011;6062;47.294;12.182;2022-10-13T16:25:48;2.97;;;1.70;;
12005;SDS011;6062;47.294;12.182;2022-10-13T16:28:14;3.50;;;1.50;;
12005;SDS011;6062;47.294;12.182;2022-10-13T16:30:40;4.90;;;1.70;;
12005;SDS011;6062;47.294;12.182;2022-10-13T16:33:06;3.78;;;1.77;;